Hoopersville, Maryland
Current Conditions -  °F | °C
As of 3:23 PM on Monday 22 Dec 2014 (Local Time) from KNHK Reporting Station
Light Rain Light Rain  
Wind Chill: 29°   Ceiling: 2800
Heat Index: 37°   Visibility: 3mi
Dew Point: 34°   Wind: 12mph
Humidity: 89%   Direction: 20°NNE
Pressure: 30.13"   Gusts: NA
Location:  38.3287°N, 76.2289°W
Report Text: KNHK 222023Z 02010KT 3SM -RA BR FEW008 SCT012 OVC028 03/01 A3013 RMK AO2 VIS 1 1/2 RY24 P0001 T00280011
Loading
Personal Weather Stations






























Interactive Weather Map New forecast layout! Learn more

10-Day Weather Forecast

Advertisements
Track Severe Weather on mobile